Time;durP1;ratioP1;P1;durP2;ratioP2;P2;SDS_P1;SDS_P2;PMS_P1;PMS_P2;Temp;Humidity;BMP_temperature;BMP_pressure;BME280_temperature;BME280_humidity;BME280_pressure;Samples;Min_cycle;Max_cycle;Signal;HPM_P1;HPM_P2
2022/11/30 00:00:18;;;;;;;8.03;5.70;;;;;;;4.82;100.00;94769.22;5033263;28;20206;-84
2022/11/30 00:02:45;;;;;;;8.63;5.73;;;;;;;4.81;100.00;94774.56;5042873;28;20216;-83
2022/11/30 00:05:12;;;;;;;8.47;5.50;;;;;;;4.92;100.00;94779.25;5044995;28;20646;-83
2022/11/30 00:07:39;;;;;;;9.17;5.50;;;;;;;4.88;100.00;94773.66;5033029;28;20191;-82
2022/11/30 00:10:08;;;;;;;8.33;5.50;;;;;;;4.78;100.00;94774.94;5033952;28;20198;-82
2022/11/30 00:12:35;;;;;;;9.13;5.43;;;;;;;4.70;100.00;94772.47;5032101;28;20224;-82
2022/11/30 00:15:01;;;;;;;7.67;4.93;;;;;;;4.51;100.00;94771.22;5039135;28;20212;-82
2022/11/30 00:17:30;;;;;;;6.50;4.63;;;;;;;4.47;100.00;94769.97;5040067;28;20297;-83
2022/11/30 00:19:56;;;;;;;6.33;4.33;;;;;;;4.45;100.00;94780.44;5033850;28;20202;-82
2022/11/30 00:22:23;;;;;;;5.90;4.10;;;;;;;4.57;100.00;94784.16;5032771;28;20226;-82
2022/11/30 00:24:50;;;;;;;5.77;3.90;;;;;;;4.61;100.00;94784.63;5033064;28;20191;-84
2022/11/30 00:27:17;;;;;;;5.00;3.40;;;;;;;4.55;100.00;94787.91;5033092;28;20203;-82
2022/11/30 00:29:43;;;;;;;6.17;3.43;;;;;;;4.42;100.00;94783.38;5046064;28;20196;-81
2022/11/30 00:32:10;;;;;;;3.97;3.00;;;;;;;4.43;100.00;94784.97;5033304;28;20206;-82
2022/11/30 00:34:38;;;;;;;5.80;2.93;;;;;;;4.51;100.00;94786.66;5044076;28;20249;-83
2022/11/30 00:37:05;;;;;;;4.47;3.17;;;;;;;4.57;100.00;94789.31;5025699;28;20253;-83
2022/11/30 00:39:32;;;;;;;4.77;3.00;;;;;;;4.39;100.00;94778.56;5043876;28;20230;-84
2022/11/30 00:41:59;;;;;;;4.37;2.90;;;;;;;4.47;100.00;94785.41;5034187;28;20243;-85
2022/11/30 00:44:25;;;;;;;5.27;2.73;;;;;;;4.47;100.00;94786.19;5032855;28;20199;-84
2022/11/30 00:46:52;;;;;;;3.87;2.60;;;;;;;4.47;100.00;94781.03;5032252;28;20229;-83
2022/11/30 00:49:19;;;;;;;3.33;2.43;;;;;;;4.47;100.00;94775.13;5032320;28;20221;-83
2022/11/30 00:51:47;;;;;;;2.97;2.30;;;;;;;4.23;100.00;94754.78;5033495;28;20567;-81
2022/11/30 00:54:14;;;;;;;2.20;1.90;;;;;;;4.34;100.00;94780.06;5032133;28;20583;-83
2022/11/30 00:56:41;;;;;;;2.90;1.90;;;;;;;4.36;100.00;94773.78;5032325;28;20724;-83
2022/11/30 00:59:08;;;;;;;2.73;2.17;;;;;;;4.31;100.00;94765.00;5033230;28;20210;-83
2022/11/30 01:01:35;;;;;;;3.40;2.00;;;;;;;4.05;100.00;94747.41;5043042;28;20210;-82
2022/11/30 01:04:02;;;;;;;2.40;2.00;;;;;;;4.20;100.00;94773.16;5044653;28;20202;-81
2022/11/30 01:06:29;;;;;;;3.13;2.20;;;;;;;4.11;100.00;94772.44;5036061;28;20199;-83
2022/11/30 01:08:57;;;;;;;2.77;2.00;;;;;;;4.07;100.00;94772.97;5039497;28;20201;-80
2022/11/30 01:11:26;;;;;;;3.10;2.07;;;;;;;4.09;100.00;94773.59;5034969;28;20195;-79
2022/11/30 01:13:54;;;;;;;2.93;2.07;;;;;;;4.13;100.00;94764.56;5047430;28;20202;-78
2022/11/30 01:16:23;;;;;;;2.60;1.83;;;;;;;3.98;100.00;94769.69;5034037;28;20194;-77
2022/11/30 01:18:51;;;;;;;2.43;2.00;;;;;;;4.06;100.00;94771.34;5038391;28;20197;-77
2022/11/30 01:21:23;;;;;;;2.50;2.10;;;;;;;4.04;100.00;94771.53;5042329;28;20194;-77
2022/11/30 01:23:50;;;;;;;3.30;2.20;;;;;;;3.86;100.00;94764.16;5036948;28;20791;-78
2022/11/30 01:26:19;;;;;;;3.33;1.93;;;;;;;4.03;100.00;94767.38;5043184;28;20195;-78
2022/11/30 01:28:50;;;;;;;2.10;1.80;;;;;;;3.97;100.00;94763.72;5036133;28;20191;-78
2022/11/30 01:31:17;;;;;;;1.93;1.73;;;;;;;3.96;100.00;94762.13;5038205;28;20675;-78
2022/11/30 01:33:48;;;;;;;2.10;1.90;;;;;;;3.90;100.00;94770.53;5044516;28;20707;-78
2022/11/30 01:36:16;;;;;;;1.80;1.70;;;;;;;3.88;100.00;94769.09;5046446;28;20191;-78
2022/11/30 01:38:45;;;;;;;1.90;1.70;;;;;;;3.86;100.00;94763.34;5041008;28;20194;-79
2022/11/30 01:41:17;;;;;;;2.73;1.80;;;;;;;3.61;100.00;94739.63;5039519;28;20194;-79
2022/11/30 01:43:48;;;;;;;1.70;1.60;;;;;;;3.84;100.00;94758.38;5044883;28;20229;-79
2022/11/30 01:46:24;;;;;;;1.50;1.40;;;;;;;3.91;100.00;94759.28;5035857;28;20210;-79
2022/11/30 01:48:58;;;;;;;2.93;1.83;;;;;;;3.94;100.00;94755.56;5037878;28;20190;-79
2022/11/30 01:51:28;;;;;;;2.30;1.90;;;;;;;3.91;100.00;94761.06;5043098;28;20202;-79
2022/11/30 01:53:55;;;;;;;2.30;1.90;;;;;;;3.99;100.00;94766.91;5034436;28;20198;-79
2022/11/30 01:56:22;;;;;;;2.67;1.73;;;;;;;4.00;100.00;94755.66;5033676;28;20536;-79
2022/11/30 01:58:50;;;;;;;3.50;2.30;;;;;;;3.83;100.00;94766.28;5032188;28;20202;-80
2022/11/30 02:01:17;;;;;;;2.37;1.80;;;;;;;3.93;100.00;94751.38;5049010;28;20195;-79
2022/11/30 02:03:48;;;;;;;3.13;1.90;;;;;;;3.97;100.00;94748.31;5035692;28;20616;-78
2022/11/30 02:06:15;;;;;;;2.63;2.00;;;;;;;4.01;100.00;94739.25;5039532;28;20676;-78
2022/11/30 02:08:42;;;;;;;2.73;2.17;;;;;;;3.99;100.00;94741.22;5030523;28;20195;-79
2022/11/30 02:11:14;;;;;;;2.60;2.10;;;;;;;4.04;100.00;94750.94;5036250;28;20578;-79
2022/11/30 02:13:56;;;;;;;3.20;2.47;;;;;;;4.10;100.00;94732.25;5039914;28;20205;-79
2022/11/30 02:16:30;;;;;;;4.60;2.23;;;;;;;4.07;100.00;94732.59;5030435;28;20203;-80
2022/11/30 02:19:11;;;;;;;2.37;2.13;;;;;;;4.05;100.00;94728.63;5038868;28;20586;-79
2022/11/30 02:21:46;;;;;;;2.57;2.20;;;;;;;4.04;100.00;94727.81;5028731;28;20195;-79
2022/11/30 02:24:37;;;;;;;2.93;2.10;;;;;;;3.99;100.00;94715.50;5036210;28;20210;-79
2022/11/30 02:27:15;;;;;;;2.97;2.27;;;;;;;4.11;100.00;94727.91;5036551;28;20201;-79
2022/11/30 02:29:47;;;;;;;4.07;2.60;;;;;;;4.19;100.00;94720.09;5044271;28;20182;-79
2022/11/30 02:32:19;;;;;;;4.43;3.10;;;;;;;4.16;100.00;94734.13;5036377;28;20187;-79
2022/11/30 02:34:48;;;;;;;5.77;3.30;;;;;;;4.19;100.00;94726.06;5028278;28;20233;-79
2022/11/30 02:37:17;;;;;;;4.87;3.13;;;;;;;4.25;100.00;94727.91;5040925;28;20205;-83
2022/11/30 02:39:44;;;;;;;3.70;3.00;;;;;;;4.28;100.00;94719.84;5047930;28;20203;-83
2022/11/30 02:42:12;;;;;;;5.90;3.57;;;;;;;4.23;100.00;94722.16;5045598;28;20230;-78
2022/11/30 02:44:40;;;;;;;4.77;3.60;;;;;;;4.27;100.00;94722.63;5038462;28;21749;-78
2022/11/30 02:47:18;;;;;;;6.80;4.30;;;;;;;4.35;100.00;94725.91;5036226;28;20273;-77
2022/11/30 02:49:52;;;;;;;7.30;4.73;;;;;;;4.30;100.00;94717.88;5034254;28;20665;-77
2022/11/30 02:52:22;;;;;;;7.10;5.27;;;;;;;4.40;100.00;94715.06;5038135;28;20195;-78
2022/11/30 02:54:49;;;;;;;7.73;5.10;;;;;;;4.37;100.00;94723.13;5031994;28;20187;-83
2022/11/30 02:57:16;;;;;;;8.27;5.37;;;;;;;4.41;100.00;94726.97;5034382;28;20206;-83
2022/11/30 02:59:43;;;;;;;9.23;5.80;;;;;;;4.33;100.00;94696.97;5040180;28;20198;-82
2022/11/30 03:02:09;;;;;;;8.23;5.60;;;;;;;4.46;100.00;94733.16;5030107;28;20206;-82
2022/11/30 03:04:37;;;;;;;8.53;5.70;;;;;;;4.44;100.00;94719.66;5047865;28;20199;-82
2022/11/30 03:07:04;;;;;;;7.37;5.57;;;;;;;4.42;100.00;94733.69;5042740;28;20203;-82
2022/11/30 03:09:31;;;;;;;11.80;6.20;;;;;;;4.42;100.00;94733.69;5032163;28;20203;-82
2022/11/30 03:11:58;;;;;;;8.93;5.80;;;;;;;4.46;100.00;94730.59;5030599;28;20208;-82
2022/11/30 03:14:25;;;;;;;7.73;5.90;;;;;;;4.54;100.00;94738.22;5046594;28;20199;-83
2022/11/30 03:16:51;;;;;;;10.47;6.20;;;;;;;4.55;100.00;94726.94;5042952;28;20200;-84
2022/11/30 03:19:18;;;;;;;7.67;5.50;;;;;;;4.54;100.00;94721.97;5046301;28;20593;-79
2022/11/30 03:21:46;;;;;;;7.47;5.23;;;;;;;4.51;100.00;94728.28;5037119;28;20248;-79
2022/11/30 03:24:13;;;;;;;6.53;4.90;;;;;;;4.61;100.00;94740.88;5038355;28;20256;-79
2022/11/30 03:26:40;;;;;;;7.67;5.40;;;;;;;4.54;100.00;94739.97;5038997;28;20561;-78
2022/11/30 03:29:07;;;;;;;6.07;4.97;;;;;;;4.57;100.00;94734.47;5032147;28;20211;-84
2022/11/30 03:31:34;;;;;;;8.03;5.30;;;;;;;4.55;100.00;94733.88;5036954;28;20202;-82
2022/11/30 03:34:00;;;;;;;8.03;5.27;;;;;;;4.62;100.00;94729.59;5035749;28;20232;-83
2022/11/30 03:36:27;;;;;;;6.87;5.40;;;;;;;4.67;100.00;94729.88;5031640;28;20665;-83
2022/11/30 03:38:55;;;;;;;5.90;5.00;;;;;;;4.60;100.00;94726.41;5044489;28;20199;-83
2022/11/30 03:41:22;;;;;;;9.40;5.10;;;;;;;4.70;100.00;94737.22;5034014;28;20204;-83
2022/11/30 03:43:49;;;;;;;7.40;4.87;;;;;;;4.66;100.00;94728.25;5029546;28;20222;-78
2022/11/30 03:46:16;;;;;;;6.73;4.73;;;;;;;4.62;100.00;94721.09;5036552;28;20208;-80
2022/11/30 03:48:43;;;;;;;7.47;4.97;;;;;;;4.74;100.00;94738.44;5039496;28;20191;-79
2022/11/30 03:51:11;;;;;;;5.70;4.70;;;;;;;4.66;100.00;94737.75;5042188;28;20203;-78
2022/11/30 03:53:39;;;;;;;6.77;4.77;;;;;;;4.61;100.00;94737.50;5040837;28;20199;-83
2022/11/30 03:56:09;;;;;;;6.17;4.87;;;;;;;4.64;100.00;94740.50;5037971;28;20209;-85
2022/11/30 03:58:36;;;;;;;6.73;4.83;;;;;;;4.68;100.00;94740.94;5046227;28;20613;-83
2022/11/30 04:01:06;;;;;;;6.93;5.10;;;;;;;4.67;100.00;94742.72;5039855;28;20210;-84
2022/11/30 04:03:34;;;;;;;7.50;4.70;;;;;;;4.68;100.00;94738.34;5035862;28;20215;-84
2022/11/30 04:06:01;;;;;;;5.87;4.93;;;;;;;4.71;100.00;94740.56;5037127;28;20205;-84
2022/11/30 04:08:28;;;;;;;6.10;4.67;;;;;;;4.73;100.00;94736.06;5047799;28;21466;-83
2022/11/30 04:10:57;;;;;;;6.87;4.60;;;;;;;4.73;100.00;94736.88;5034019;28;20197;-83
2022/11/30 04:13:26;;;;;;;7.53;4.50;;;;;;;4.58;100.00;94721.44;5033944;28;20262;-83
2022/11/30 04:15:54;;;;;;;5.37;4.43;;;;;;;4.75;100.00;94744.41;5039950;28;20256;-78
2022/11/30 04:18:23;;;;;;;8.37;5.33;;;;;;;4.67;100.00;94745.31;5037014;28;20677;-79
2022/11/30 04:20:51;;;;;;;5.77;4.60;;;;;;;4.70;100.00;94741.56;5043492;28;20191;-77
2022/11/30 04:23:18;;;;;;;6.20;4.60;;;;;;;4.67;100.00;94757.38;5044365;28;20219;-78
2022/11/30 04:25:46;;;;;;;5.90;4.63;;;;;;;4.63;100.00;94750.97;5042375;28;20658;-78
2022/11/30 04:28:14;;;;;;;5.07;4.50;;;;;;;4.65;100.00;94746.47;5042616;28;20604;-79
2022/11/30 04:30:43;;;;;;;4.77;4.10;;;;;;;4.70;100.00;94764.72;5036801;28;20986;-78
2022/11/30 04:33:10;;;;;;;4.50;3.83;;;;;;;4.68;100.00;94769.25;5038920;28;20311;-79
2022/11/30 04:35:40;;;;;;;5.03;3.90;;;;;;;4.68;100.00;94754.59;5039417;28;20208;-79
2022/11/30 04:38:07;;;;;;;4.13;3.67;;;;;;;4.68;100.00;94758.94;5032386;28;20205;-79
2022/11/30 04:40:34;;;;;;;5.47;3.67;;;;;;;4.74;100.00;94759.03;5038685;28;20191;-78
2022/11/30 04:43:01;;;;;;;7.03;4.67;;;;;;;4.72;100.00;94748.13;5042906;28;20226;-79
2022/11/30 04:45:28;;;;;;;5.13;4.37;;;;;;;4.76;100.00;94756.31;5043297;28;20589;-79
2022/11/30 04:47:56;;;;;;;4.93;3.97;;;;;;;4.74;100.00;94758.22;5039208;28;20657;-79
2022/11/30 04:50:23;;;;;;;5.73;4.37;;;;;;;4.67;100.00;94754.78;5036982;28;20199;-84
2022/11/30 04:52:50;;;;;;;4.87;3.90;;;;;;;4.61;100.00;94756.31;5031660;28;20216;-81
2022/11/30 04:55:18;;;;;;;5.47;4.03;;;;;;;4.60;100.00;94749.56;5038414;28;20196;-79
2022/11/30 04:57:45;;;;;;;5.83;4.10;;;;;;;4.60;100.00;94762.44;5039917;28;20194;-78
2022/11/30 05:00:13;;;;;;;4.60;3.60;;;;;;;4.56;100.00;94751.69;5035878;28;20242;-79
2022/11/30 05:02:40;;;;;;;4.13;3.53;;;;;;;4.54;100.00;94758.78;5036933;28;20204;-78
2022/11/30 05:05:09;;;;;;;4.73;3.70;;;;;;;4.57;100.00;94755.88;5043827;28;20198;-79
2022/11/30 05:07:37;;;;;;;5.43;4.37;;;;;;;4.50;100.00;94761.91;5039440;28;20196;-79
2022/11/30 05:10:05;;;;;;;5.10;4.10;;;;;;;4.46;100.00;94760.66;5047714;28;20198;-81
2022/11/30 05:12:32;;;;;;;4.77;3.80;;;;;;;4.51;100.00;94756.56;5041677;28;20195;-81
2022/11/30 05:14:59;;;;;;;6.73;4.10;;;;;;;4.51;100.00;94763.50;5045568;28;20211;-82
2022/11/30 05:17:26;;;;;;;5.27;4.60;;;;;;;4.49;100.00;94755.16;5034669;28;20274;-81
2022/11/30 05:19:53;;;;;;;5.17;4.43;;;;;;;4.45;100.00;94747.00;5034544;28;20196;-83
2022/11/30 05:22:21;;;;;;;4.90;4.33;;;;;;;4.59;100.00;94768.53;5036286;28;20195;-82
2022/11/30 05:24:48;;;;;;;6.33;4.43;;;;;;;4.47;100.00;94773.34;5037227;28;20222;-82
2022/11/30 05:27:14;;;;;;;5.30;4.40;;;;;;;4.45;100.00;94764.19;5025625;28;20282;-83
2022/11/30 05:29:42;;;;;;;6.73;4.60;;;;;;;4.40;100.00;94766.50;5038998;28;20201;-83
2022/11/30 05:32:08;;;;;;;6.37;4.50;;;;;;;4.36;100.00;94763.50;5042240;28;20202;-85
2022/11/30 05:34:36;;;;;;;6.07;4.93;;;;;;;4.38;100.00;94771.03;5040196;28;20599;-83
2022/11/30 05:37:03;;;;;;;5.40;4.70;;;;;;;4.41;100.00;94753.50;5039346;28;20210;-81
2022/11/30 05:39:31;;;;;;;5.97;4.60;;;;;;;4.38;100.00;94769.28;5041537;28;20210;-81
2022/11/30 05:41:58;;;;;;;6.37;4.87;;;;;;;4.40;100.00;94769.88;5035849;28;20667;-80
2022/11/30 05:44:25;;;;;;;7.57;5.10;;;;;;;4.35;100.00;94774.78;5035256;28;20728;-83
2022/11/30 05:46:51;;;;;;;7.53;5.33;;;;;;;4.39;100.00;94780.34;5037124;28;20199;-84
2022/11/30 05:49:18;;;;;;;6.63;5.10;;;;;;;4.37;100.00;94774.59;5044677;28;20188;-83
2022/11/30 05:51:45;;;;;;;8.50;5.40;;;;;;;4.41;100.00;94786.13;5038784;28;20750;-84
2022/11/30 05:54:12;;;;;;;6.00;5.13;;;;;;;4.38;100.00;94771.03;5034168;28;20194;-84
2022/11/30 05:56:40;;;;;;;7.90;5.83;;;;;;;4.52;100.00;94788.25;5036440;28;20200;-80
2022/11/30 05:59:07;;;;;;;6.90;5.37;;;;;;;4.51;100.00;94784.06;5040298;28;20198;-84
2022/11/30 06:01:34;;;;;;;7.83;4.70;;;;;;;4.46;100.00;94787.19;5041480;28;20227;-84
2022/11/30 06:04:05;;;;;;;7.50;5.50;;;;;;;4.51;100.00;94792.59;5017891;28;20222;-86
2022/11/30 06:06:32;;;;;;;9.90;4.93;;;;;;;4.44;100.00;94776.25;5037560;28;20199;-84
2022/11/30 06:08:59;;;;;;;6.47;4.77;;;;;;;4.39;100.00;94770.84;5031461;28;20210;-84
2022/11/30 06:11:25;;;;;;;7.57;5.23;;;;;;;4.44;100.00;94796.84;5033735;28;20190;-84
2022/11/30 06:13:54;;;;;;;5.80;4.47;;;;;;;4.41;100.00;94791.28;5044509;28;20203;-84
2022/11/30 06:16:21;;;;;;;6.40;4.07;;;;;;;4.30;100.00;94789.13;5034188;28;20220;-84
2022/11/30 06:18:48;;;;;;;8.50;4.23;;;;;;;4.40;100.00;94798.19;5030209;28;20203;-80
2022/11/30 06:21:14;;;;;;;6.20;4.00;;;;;;;4.48;100.00;94799.88;5035910;28;20209;-80
2022/11/30 06:23:41;;;;;;;8.13;4.80;;;;;;;4.49;100.00;94802.28;5032621;28;20215;-80
2022/11/30 06:26:10;;;;;;;4.87;3.80;;;;;;;4.53;100.00;94797.59;5044912;28;20205;-81
2022/11/30 06:28:38;;;;;;;7.33;3.73;;;;;;;4.61;100.00;94796.69;5035382;28;20194;-85
2022/11/30 06:31:08;;;;;;;4.83;3.70;;;;;;;4.62;100.00;94791.34;5031326;28;20190;-84
2022/11/30 06:33:35;;;;;;;7.17;3.97;;;;;;;4.61;100.00;94799.25;5037518;28;20693;-84
2022/11/30 06:36:02;;;;;;;8.40;3.40;;;;;;;4.53;100.00;94775.19;5033053;28;20309;-84
2022/11/30 06:38:29;;;;;;;8.33;3.57;;;;;;;4.53;100.00;94779.56;5034254;28;20199;-82
2022/11/30 06:41:03;;;;;;;7.13;4.00;;;;;;;4.61;100.00;94784.63;5038609;28;20206;-82
2022/11/30 06:43:33;;;;;;;6.37;4.67;;;;;;;4.69;100.00;94805.13;5035586;28;20231;-81
2022/11/30 06:46:01;;;;;;;5.43;3.80;;;;;;;4.71;100.00;94803.16;5038164;28;20681;-80
2022/11/30 06:48:29;;;;;;;5.90;3.90;;;;;;;4.82;100.00;94818.13;5032949;28;20235;-81
2022/11/30 06:50:57;;;;;;;5.07;3.50;;;;;;;4.71;100.00;94804.91;5029085;28;20201;-80
2022/11/30 06:53:24;;;;;;;7.50;3.70;;;;;;;4.82;100.00;94810.41;5036731;28;20230;-81
2022/11/30 06:55:52;;;;;;;6.53;4.23;;;;;;;4.85;100.00;94806.72;5034057;28;20586;-81
2022/11/30 06:58:19;;;;;;;4.90;3.70;;;;;;;4.87;100.00;94810.69;5038829;28;20202;-80
2022/11/30 07:00:46;;;;;;;6.70;3.90;;;;;;;4.87;100.00;94808.13;5032507;28;20571;-80
2022/11/30 07:03:14;;;;;;;8.00;4.13;;;;;;;4.79;100.00;94799.69;5029288;28;20661;-80
2022/11/30 07:05:44;;;;;;;5.13;4.17;;;;;;;4.78;100.00;94816.13;5032928;28;20201;-80
2022/11/30 07:08:12;;;;;;;6.47;4.43;;;;;;;4.86;100.00;94809.09;5034966;28;20197;-80
2022/11/30 07:10:42;;;;;;;4.83;3.83;;;;;;;4.96;100.00;94819.13;5035055;28;20204;-86
2022/11/30 07:13:12;;;;;;;5.47;4.10;;;;;;;4.96;100.00;94817.31;5046634;28;20205;-84
2022/11/30 07:15:40;;;;;;;6.10;4.00;;;;;;;4.84;100.00;94805.09;5043393;28;20219;-85
2022/11/30 07:18:07;;;;;;;7.37;4.20;;;;;;;4.96;100.00;94816.56;5030901;28;20187;-84
2022/11/30 07:20:34;;;;;;;10.87;5.10;;;;;;;4.88;100.00;94824.34;5029631;28;20207;-84
2022/11/30 07:28:28;;;;;;;6.30;4.60;;;;;;;4.97;100.00;94826.66;5048911;28;20269;-84
2022/11/30 07:30:54;;;;;;;6.17;4.50;;;;;;;4.99;100.00;94819.53;5036154;28;20200;-84
2022/11/30 07:33:21;;;;;;;7.43;4.23;;;;;;;4.96;100.00;94822.47;5036771;28;20752;-84
2022/11/30 07:35:48;;;;;;;5.90;4.10;;;;;;;5.01;100.00;94824.53;5038685;28;20210;-85
2022/11/30 07:38:16;;;;;;;9.17;4.80;;;;;;;5.08;100.00;94825.38;5034537;28;20207;-83
2022/11/30 07:40:43;;;;;;;8.23;4.73;;;;;;;4.86;100.00;94796.22;5034777;28;20210;-81
2022/11/30 07:43:10;;;;;;;8.07;5.07;;;;;;;4.98;100.00;94806.88;5038249;28;20192;-81
2022/11/30 07:45:37;;;;;;;7.27;5.07;;;;;;;4.95;100.00;94807.22;5035316;28;20228;-81
2022/11/30 07:48:04;;;;;;;8.30;5.20;;;;;;;4.94;100.00;94803.84;5035826;28;20200;-80
2022/11/30 07:50:32;;;;;;;8.73;4.90;;;;;;;5.00;100.00;94815.19;5040287;28;20209;-81
2022/11/30 07:52:59;;;;;;;7.83;5.17;;;;;;;4.98;100.00;94812.00;5047683;28;20203;-81
2022/11/30 07:55:27;;;;;;;6.70;4.60;;;;;;;5.02;100.00;94808.88;5035414;28;20571;-81
2022/11/30 07:57:54;;;;;;;7.90;4.87;;;;;;;5.13;100.00;94811.03;5036560;28;20211;-80
2022/11/30 08:00:21;;;;;;;9.23;5.10;;;;;;;5.12;100.00;94806.03;5039964;28;20205;-80
2022/11/30 08:02:50;;;;;;;8.17;5.20;;;;;;;5.13;100.00;94807.66;5040692;28;20262;-80
2022/11/30 08:05:17;;;;;;;8.57;4.80;;;;;;;4.95;100.00;94789.19;5036449;28;20219;-80
2022/11/30 08:07:45;;;;;;;7.27;4.57;;;;;;;5.06;100.00;94801.59;5044636;28;20190;-84
2022/11/30 08:10:12;;;;;;;9.40;5.40;;;;;;;5.08;100.00;94786.75;5046017;28;20204;-86
2022/11/30 08:12:40;;;;;;;8.60;5.43;;;;;;;5.22;100.00;94810.91;5047210;28;20194;-86
2022/11/30 08:15:08;;;;;;;8.43;4.70;;;;;;;5.11;100.00;94812.97;5035419;28;20682;-87
2022/11/30 08:17:35;;;;;;;10.37;5.63;;;;;;;5.24;100.00;94825.22;5034337;28;20206;-84
2022/11/30 08:20:05;;;;;;;9.50;5.60;;;;;;;5.05;100.00;94793.06;5036568;28;20203;-83
2022/11/30 08:22:32;;;;;;;7.97;5.00;;;;;;;5.07;100.00;94798.88;5044498;28;20337;-84
2022/11/30 08:24:59;;;;;;;8.97;5.00;;;;;;;5.24;100.00;94807.16;5043149;28;20224;-81
2022/11/30 08:27:26;;;;;;;9.07;4.93;;;;;;;5.40;100.00;94819.81;5040173;28;20202;-82
2022/11/30 08:29:54;;;;;;;8.80;4.90;;;;;;;5.43;100.00;94811.72;5037420;28;20226;-82
2022/11/30 08:32:21;;;;;;;8.07;5.00;;;;;;;5.55;100.00;94806.91;5040266;28;20200;-79
2022/11/30 08:34:48;;;;;;;8.50;4.90;;;;;;;5.67;100.00;94819.13;5037025;28;20267;-82
2022/11/30 08:37:15;;;;;;;8.67;4.83;;;;;;;5.71;100.00;94828.06;5035264;28;20202;-83
2022/11/30 08:39:42;;;;;;;10.27;5.57;;;;;;;5.74;100.00;94824.34;5039683;28;20205;-90
2022/11/30 08:42:09;;;;;;;8.30;5.23;;;;;;;5.82;100.00;94831.16;5040006;28;20198;-80
2022/11/30 08:44:36;;;;;;;8.97;5.60;;;;;;;5.82;100.00;94826.00;5037769;28;20221;-81
2022/11/30 08:47:04;;;;;;;8.43;5.27;;;;;;;5.83;100.00;94819.88;5038488;28;20577;-80
2022/11/30 08:49:31;;;;;;;8.57;5.27;;;;;;;5.80;100.00;94821.00;5045735;28;20201;-80
2022/11/30 08:51:59;;;;;;;11.03;4.93;;;;;;;5.75;100.00;94807.88;5048633;28;20236;-80
2022/11/30 08:54:26;;;;;;;7.57;4.63;;;;;;;5.80;100.00;94813.28;5053067;28;20213;-81
2022/11/30 08:56:53;;;;;;;7.50;5.00;;;;;;;5.80;100.00;94815.84;5057068;28;20197;-81
2022/11/30 08:59:20;;;;;;;11.77;5.70;;;;;;;5.81;100.00;94821.81;5059471;28;20201;-81
2022/11/30 09:01:47;;;;;;;9.93;6.20;;;;;;;5.81;100.00;94820.03;5058528;28;20193;-81
2022/11/30 09:04:15;;;;;;;11.07;6.80;;;;;;;5.78;100.00;94809.28;5057086;28;20538;-80
2022/11/30 09:06:42;;;;;;;9.93;6.63;;;;;;;5.88;100.00;94812.41;5042962;28;20209;-83
2022/11/30 09:09:09;;;;;;;12.80;7.00;;;;;;;5.81;100.00;94825.19;5041738;28;20197;-79
2022/11/30 09:11:36;;;;;;;10.53;5.83;;;;;;;5.58;100.00;94825.38;5039928;28;20212;-78
2022/11/30 09:14:04;;;;;;;9.70;5.93;;;;;;;5.25;100.00;94824.25;5048403;28;20294;-78
2022/11/30 09:16:31;;;;;;;11.33;6.80;;;;;;;4.96;100.00;94824.28;5049977;28;20195;-80
2022/11/30 09:18:58;;;;;;;11.60;6.70;;;;;;;4.98;100.00;94815.41;5052447;28;20218;-78
2022/11/30 09:21:26;;;;;;;10.30;6.37;;;;;;;5.17;100.00;94821.75;5053524;28;20190;-87
2022/11/30 09:23:55;;;;;;;10.87;6.67;;;;;;;5.02;100.00;94824.34;5071719;28;20230;-89
2022/11/30 09:26:24;;;;;;;11.07;5.73;;;;;;;4.96;100.00;94832.78;5064373;28;20251;-90
2022/11/30 09:28:51;;;;;;;13.00;6.40;;;;;;;5.03;100.00;94827.72;5051520;28;20190;-91
2022/11/30 09:31:20;;;;;;;10.97;5.13;;;;;;;5.07;100.00;94816.91;5054637;28;20201;-90
2022/11/30 09:33:48;;;;;;;9.97;5.73;;;;;;;5.33;100.00;94843.94;5055736;28;20733;-89
2022/11/30 09:36:17;;;;;;;11.73;5.80;;;;;;;5.21;100.00;94843.59;5042115;28;20200;-78
2022/11/30 09:38:46;;;;;;;8.53;6.23;;;;;;;5.05;100.00;94843.81;5042848;28;20567;-80
2022/11/30 09:41:38;;;;;;;9.93;6.03;;;;;;;5.17;100.00;94850.06;5041214;28;20206;-79
2022/11/30 09:44:13;;;;;;;8.97;5.33;;;;;;;5.26;100.00;94848.19;5038032;28;20191;-94
2022/11/30 09:46:44;;;;;;;7.27;5.17;;;;;;;5.41;100.00;94851.56;5038692;28;20180;-95
2022/11/30 09:49:17;;;;;;;7.23;4.23;;;;;;;5.44;100.00;94852.00;5041240;28;20777;-80
2022/11/30 09:51:46;;;;;;;7.23;4.03;;;;;;;5.29;100.00;94850.41;5044750;28;20184;-79
2022/11/30 09:54:17;;;;;;;13.73;4.13;;;;;;;5.36;100.00;94843.56;5041741;28;20671;-79
2022/11/30 09:56:46;;;;;;;5.47;3.57;;;;;;;5.49;100.00;94838.56;5039477;28;20190;-92
2022/11/30 09:59:18;;;;;;;5.83;3.67;;;;;;;5.48;100.00;94830.00;5041090;28;20211;-95
2022/11/30 10:01:47;;;;;;;9.37;4.17;;;;;;;5.48;100.00;94819.72;5040948;28;20185;-96
2022/11/30 10:04:22;;;;;;;8.43;4.83;;;;;;;5.19;100.00;94806.94;5038189;28;20274;-92
2022/11/30 10:06:59;;;;;;;9.30;4.63;;;;;;;5.03;100.00;94825.94;5034291;28;20226;-90
2022/11/30 10:09:38;;;;;;;7.37;4.57;;;;;;;5.03;100.00;94818.22;5039318;28;20190;-86
2022/11/30 10:12:11;;;;;;;8.87;5.07;;;;;;;5.16;100.00;94817.59;5054569;28;20214;-91
2022/11/30 10:15:13;;;;;;;7.87;4.90;;;;;;;5.34;100.00;94815.41;5045877;28;20195;-90
2022/11/30 10:17:46;;;;;;;8.13;5.03;;;;;;;5.27;100.00;94809.38;5012036;28;20215;-87
2022/11/30 10:20:50;;;;;;;8.33;4.70;;;;;;;5.09;100.00;94796.09;5034138;28;20203;-88
2022/11/30 10:23:30;;;;;;;5.63;4.23;;;;;;;5.24;100.00;94802.03;5013606;28;20203;-87
2022/11/30 10:26:01;;;;;;;7.10;3.77;;;;;;;5.39;100.00;94797.63;5015071;28;20247;-88
2022/11/30 10:28:43;;;;;;;6.53;3.60;;;;;;;5.56;100.00;94800.78;5037303;28;20214;-79
2022/11/30 10:31:12;;;;;;;5.53;3.67;;;;;;;5.64;100.00;94788.56;5036628;28;20192;-78
2022/11/30 10:33:45;;;;;;;7.63;4.20;;;;;;;5.42;100.00;94783.59;5037678;28;20226;-79
2022/11/30 10:36:15;;;;;;;5.93;3.77;;;;;;;5.46;100.00;94806.22;5028033;28;20708;-79
2022/11/30 10:38:47;;;;;;;5.77;3.87;;;;;;;5.48;100.00;94800.91;5038970;28;20192;-79
2022/11/30 10:41:20;;;;;;;6.53;3.70;;;;;;;5.60;100.00;94805.38;5041245;28;20191;-78
2022/11/30 10:43:51;;;;;;;6.30;3.60;;;;;;;5.73;100.00;94794.38;5036282;28;20182;-79
2022/11/30 10:46:22;;;;;;;5.77;3.13;;;;;;;5.78;100.00;94796.41;5039869;28;20248;-79
2022/11/30 10:48:54;;;;;;;8.13;3.20;;;;;;;5.91;100.00;94792.22;5034083;28;20655;-92
2022/11/30 10:51:22;;;;;;;4.60;3.00;;;;;;;6.01;100.00;94795.25;5052095;28;20266;-90
2022/11/30 10:53:49;;;;;;;5.23;3.30;;;;;;;5.96;100.00;94786.47;5042580;28;20224;-88
2022/11/30 10:56:17;;;;;;;5.30;3.20;;;;;;;6.05;100.00;94793.09;5040783;28;20201;-79
2022/11/30 10:58:53;;;;;;;4.77;3.10;;;;;;;6.06;100.00;94782.59;5051018;28;20216;-79
2022/11/30 11:01:32;;;;;;;4.27;3.10;;;;;;;6.05;100.00;94772.47;5044793;28;20193;-79
2022/11/30 11:04:14;;;;;;;3.40;2.70;;;;;;;6.00;100.00;94773.00;5046621;28;20615;-79
2022/11/30 11:06:45;;;;;;;6.27;3.30;;;;;;;6.13;100.00;94778.28;5041794;28;20261;-79
2022/11/30 11:09:35;;;;;;;4.70;3.37;;;;;;;6.17;100.00;94771.78;5040035;28;20189;-78
2022/11/30 11:12:05;;;;;;;6.10;4.17;;;;;;;6.17;100.00;94774.38;5044092;28;20202;-78
2022/11/30 11:14:32;;;;;;;6.67;4.20;;;;;;;6.10;100.00;94770.94;5045417;28;20194;-79
2022/11/30 11:17:01;;;;;;;8.20;4.63;;;;;;;6.11;100.00;94769.16;5047977;28;20200;-81
2022/11/30 11:19:34;;;;;;;5.97;4.10;;;;;;;6.14;100.00;94761.03;5040203;28;20308;-79
2022/11/30 11:22:03;;;;;;;5.93;3.80;;;;;;;6.20;100.00;94766.22;5045677;28;20586;-82
2022/11/30 11:24:31;;;;;;;5.10;3.70;;;;;;;6.27;100.00;94769.66;5045121;28;20202;-79
2022/11/30 11:26:58;;;;;;;8.10;3.57;;;;;;;6.27;100.00;94767.06;5042077;28;20204;-79
2022/11/30 11:29:33;;;;;;;5.43;3.60;;;;;;;6.22;100.00;94769.44;5043227;28;20579;-78
2022/11/30 11:32:09;;;;;;;4.60;3.60;;;;;;;6.25;100.00;94781.16;5042761;28;20213;-80
2022/11/30 11:34:37;;;;;;;6.27;3.93;;;;;;;6.23;100.00;94776.16;5041091;28;20221;-96
2022/11/30 11:37:06;;;;;;;7.00;4.37;;;;;;;6.21;100.00;94770.41;5068528;28;20186;-95
2022/11/30 11:39:33;;;;;;;7.70;4.27;;;;;;;6.23;100.00;94765.06;5051629;28;20214;-86
2022/11/30 11:42:00;;;;;;;6.13;4.43;;;;;;;6.23;100.00;94778.75;5042460;28;20202;-86
2022/11/30 11:44:29;;;;;;;8.30;5.03;;;;;;;6.30;100.00;94765.91;5053320;28;20202;-86